Time;durP1;ratioP1;P1;durP2;ratioP2;P2;SDS_P1;SDS_P2;PMS_P1;PMS_P2;Temp;Humidity;BMP_temperature;BMP_pressure;BME280_temperature;BME280_humidity;BME280_pressure;Samples;Min_cycle;Max_cycle;Signal;HPM_P1;HPM_P2
2023/01/20 00:01:26;;;;;;;47.80;25.77;;;;;;;-0.14;100.00;99852.69;5063326;28;20515;-83
2023/01/20 00:03:54;;;;;;;44.55;24.98;;;;;;;-0.20;100.00;99841.53;5056200;28;20075;-82
2023/01/20 00:06:22;;;;;;;55.28;26.80;;;;;;;-0.17;100.00;99851.91;5059908;28;20425;-83
2023/01/20 00:08:54;;;;;;;58.90;29.23;;;;;;;-0.45;100.00;99815.78;5058385;28;20045;-82
2023/01/20 00:11:21;;;;;;;56.78;29.08;;;;;;;-0.46;100.00;99826.19;5073022;28;20063;-82
2023/01/20 00:13:48;;;;;;;59.05;29.83;;;;;;;-0.40;100.00;99839.16;5064286;28;20056;-81
2023/01/20 00:16:14;;;;;;;59.38;30.42;;;;;;;-0.42;100.00;99846.09;5053449;28;20052;-80
2023/01/20 00:18:41;;;;;;;65.50;30.08;;;;;;;-0.29;100.00;99873.69;5060750;28;20046;-81
2023/01/20 00:21:12;;;;;;;62.70;29.17;;;;;;;-0.23;100.00;99867.56;5065831;28;20063;-81
2023/01/20 00:23:39;;;;;;;61.13;28.83;;;;;;;-0.26;100.00;99862.41;5062149;28;20049;-82
2023/01/20 00:26:08;;;;;;;58.67;29.10;;;;;;;-0.25;100.00;99853.72;5057435;28;20110;-81
2023/01/20 00:28:35;;;;;;;64.38;30.02;;;;;;;0.00;100.00;99896.81;5065146;28;20076;-81
2023/01/20 00:31:10;;;;;;;61.53;29.02;;;;;;;-0.22;100.00;99856.28;5073251;28;20067;-81
2023/01/20 00:33:36;;;;;;;58.42;28.50;;;;;;;-0.36;100.00;99841.69;5058338;28;20095;-84
2023/01/20 00:36:03;;;;;;;55.30;28.02;;;;;;;-0.23;100.00;99881.44;5052445;28;20231;-81
2023/01/20 00:38:30;;;;;;;57.20;27.60;;;;;;;-0.78;100.00;99791.00;5053087;28;20052;-84
2023/01/20 00:40:56;;;;;;;59.35;28.88;;;;;;;-0.41;100.00;99848.69;5063541;28;20071;-81
2023/01/20 00:43:22;;;;;;;56.08;28.50;;;;;;;-0.46;100.00;99845.28;5065356;28;20044;-82
2023/01/20 00:45:49;;;;;;;59.15;28.90;;;;;;;-0.24;100.00;99884.06;5071158;28;20048;-84
2023/01/20 00:48:15;;;;;;;56.58;27.65;;;;;;;-0.74;100.00;99812.66;5066232;28;20426;-82
2023/01/20 00:50:42;;;;;;;54.60;28.10;;;;;;;-1.31;100.00;99731.81;5063707;28;20053;-81
2023/01/20 00:53:08;;;;;;;59.17;29.35;;;;;;;-0.52;100.00;99858.38;5067840;28;20048;-83
2023/01/20 00:55:35;;;;;;;51.72;27.30;;;;;;;-0.45;100.00;99870.41;5057004;28;20056;-82
2023/01/20 00:58:01;;;;;;;56.45;27.85;;;;;;;-0.59;100.00;99851.50;5052587;28;20083;-80
2023/01/20 01:00:28;;;;;;;48.05;26.00;;;;;;;-0.90;100.00;99800.69;5052574;28;20045;-82
2023/01/20 01:02:54;;;;;;;58.50;27.90;;;;;;;-1.13;100.00;99787.94;5059829;28;20049;-83
2023/01/20 01:05:22;;;;;;;55.83;26.95;;;;;;;-0.55;100.00;99900.00;5062281;28;20085;-81
2023/01/20 01:07:48;;;;;;;59.08;28.02;;;;;;;-1.29;100.00;99791.56;5068823;28;20773;-82
2023/01/20 01:10:15;;;;;;;61.95;30.15;;;;;;;-0.53;100.00;99926.84;5069251;28;20045;-82
2023/01/20 01:12:42;;;;;;;58.55;27.42;;;;;;;-0.73;100.00;99887.16;5061321;28;20753;-83
2023/01/20 01:15:09;;;;;;;62.63;29.83;;;;;;;-1.26;100.00;99792.34;5069843;28;20048;-82
2023/01/20 01:17:35;;;;;;;56.80;27.77;;;;;;;-1.19;100.00;99808.75;5061268;28;20056;-82
2023/01/20 01:20:03;;;;;;;55.67;28.50;;;;;;;-0.41;100.00;99923.25;5053914;28;20481;-81
2023/01/20 01:22:32;;;;;;;54.15;27.63;;;;;;;-0.65;100.00;99882.78;5069084;28;20076;-82
2023/01/20 01:24:58;;;;;;;55.60;28.38;;;;;;;-0.40;100.00;99928.44;5065465;28;20135;-82
2023/01/20 01:27:27;;;;;;;60.03;29.23;;;;;;;-0.70;100.00;99887.16;5073944;28;20493;-82
2023/01/20 01:29:54;;;;;;;59.75;28.08;;;;;;;-0.67;100.00;99891.47;5056945;28;20049;-81
2023/01/20 01:32:22;;;;;;;59.03;27.80;;;;;;;-0.43;100.00;99936.28;5061602;28;20135;-80
2023/01/20 01:34:48;;;;;;;62.35;29.38;;;;;;;-0.67;100.00;99905.31;5051947;28;20439;-82
2023/01/20 01:37:15;;;;;;;66.05;28.67;;;;;;;-0.47;100.00;99947.59;5065418;28;20049;-81
2023/01/20 01:39:41;;;;;;;61.28;29.50;;;;;;;-0.68;100.00;99919.19;5054209;28;20056;-81
2023/01/20 01:42:12;;;;;;;58.55;28.65;;;;;;;-0.81;100.00;99899.38;5056787;28;20142;-82
2023/01/20 01:45:21;;;;;;;61.33;27.98;;;;;;;-0.57;100.00;99952.91;5060306;28;20053;-80
2023/01/20 01:47:58;;;;;;;59.90;27.85;;;;;;;-0.90;100.00;99897.72;5055427;28;20057;-81
2023/01/20 01:50:41;;;;;;;62.53;29.25;;;;;;;-0.81;100.00;99918.44;5064613;28;20048;-82
2023/01/20 01:53:08;;;;;;;64.78;29.08;;;;;;;-0.68;100.00;99939.13;5051076;28;20044;-83
2023/01/20 01:55:38;;;;;;;61.70;29.63;;;;;;;-0.62;100.00;99942.53;5051015;28;20056;-82
2023/01/20 01:58:07;;;;;;;67.38;29.65;;;;;;;-0.75;100.00;99926.19;5052579;28;20049;-82
2023/01/20 02:00:33;;;;;;;61.42;29.45;;;;;;;-0.93;100.00;99891.69;5061312;28;20049;-80
2023/01/20 02:03:00;;;;;;;76.40;29.83;;;;;;;-1.31;100.00;99843.50;5057239;28;20063;-81
2023/01/20 02:05:29;;;;;;;62.90;30.42;;;;;;;-0.95;100.00;99909.03;5064016;28;20413;-81
2023/01/20 02:07:58;;;;;;;63.22;29.92;;;;;;;-0.67;100.00;99959.94;5051866;28;20065;-82
2023/01/20 02:10:25;;;;;;;67.72;30.20;;;;;;;-1.32;100.00;99866.91;5051444;28;20049;-82
2023/01/20 02:12:52;;;;;;;69.30;29.35;;;;;;;-0.88;100.00;99940.16;5060874;28;20044;-80
2023/01/20 02:15:26;;;;;;;69.05;29.30;;;;;;;-0.83;100.00;99943.59;5063366;28;20056;-82
2023/01/20 02:18:04;;;;;;;67.97;29.88;;;;;;;-0.57;100.00;99976.28;5058016;28;20462;-81
2023/01/20 02:20:41;;;;;;;62.50;29.30;;;;;;;-0.51;100.00;99971.91;5055761;28;20053;-82
2023/01/20 02:23:16;;;;;;;74.72;30.67;;;;;;;-0.51;100.00;99979.72;5051359;28;20045;-83
2023/01/20 02:26:09;;;;;;;61.60;28.63;;;;;;;-0.52;100.00;100004.00;5051051;28;20516;-82
2023/01/20 02:29:06;;;;;;;64.20;29.83;;;;;;;-0.55;100.00;99993.63;5035520;28;20059;-80
2023/01/20 02:32:02;;;;;;;66.65;29.00;;;;;;;-0.58;100.00;99996.25;5050825;28;20114;-81
2023/01/20 02:34:54;;;;;;;63.30;28.83;;;;;;;-0.89;100.00;99950.56;5050829;28;20045;-81
2023/01/20 02:37:43;;;;;;;65.25;28.60;;;;;;;-0.61;100.00;100001.47;5057642;28;20053;-82
2023/01/20 02:40:17;;;;;;;63.25;29.17;;;;;;;-0.74;100.00;99992.91;5061767;28;20053;-81
2023/01/20 02:42:50;;;;;;;68.32;29.48;;;;;;;-0.65;100.00;100007.59;5062666;28;20404;-80
2023/01/20 02:45:39;;;;;;;64.00;29.63;;;;;;;-0.79;100.00;99999.03;5057725;28;20048;-80
2023/01/20 02:48:35;;;;;;;70.78;29.58;;;;;;;-0.77;100.00;100008.50;5051214;28;20203;-80
2023/01/20 02:51:09;;;;;;;58.97;27.73;;;;;;;-0.69;100.00;100010.22;5057094;28;20056;-81
2023/01/20 02:53:43;;;;;;;64.97;28.75;;;;;;;-0.76;100.00;100006.78;5063433;28;20071;-80
2023/01/20 02:56:11;;;;;;;68.90;27.67;;;;;;;-0.87;100.00;100008.59;5051107;28;20146;-81
2023/01/20 02:58:58;;;;;;;59.97;28.85;;;;;;;-0.91;100.00;100001.69;5067677;28;20053;-81
2023/01/20 03:01:42;;;;;;;64.43;28.60;;;;;;;-0.88;100.00;100015.53;5064223;28;20170;-81
2023/01/20 03:04:12;;;;;;;61.30;28.23;;;;;;;-1.02;100.00;100003.50;5059869;28;20180;-81
2023/01/20 03:06:45;;;;;;;62.53;27.17;;;;;;;-1.08;100.00;99994.00;5056617;28;20059;-81
2023/01/20 03:09:19;;;;;;;66.82;29.40;;;;;;;-1.01;100.00;99994.84;5051651;28;20052;-83
2023/01/20 03:11:57;;;;;;;64.50;28.20;;;;;;;-0.92;100.00;99994.75;5067474;28;20142;-82
2023/01/20 03:14:24;;;;;;;62.33;29.48;;;;;;;-0.79;100.00;100006.81;5057393;28;20485;-83
2023/01/20 03:16:51;;;;;;;63.20;27.98;;;;;;;-1.50;100.00;99901.63;5059835;28;20059;-82
2023/01/20 03:19:18;;;;;;;66.00;28.00;;;;;;;-0.60;100.00;100047.41;5059472;28;20072;-82
2023/01/20 03:21:47;;;;;;;76.05;28.98;;;;;;;-0.69;100.00;100052.69;5071553;28;20040;-81
2023/01/20 03:24:14;;;;;;;71.18;28.65;;;;;;;-0.93;100.00;100021.63;5053607;28;20059;-82
2023/01/20 03:26:40;;;;;;;72.80;29.23;;;;;;;-0.96;100.00;100021.66;5074339;28;20059;-80
2023/01/20 03:29:14;;;;;;;69.82;30.23;;;;;;;-0.76;100.00;100058.78;5068264;28;20067;-82
2023/01/20 03:31:46;;;;;;;70.15;29.55;;;;;;;-0.73;100.00;100050.97;5065521;28;20065;-83
2023/01/20 03:34:18;;;;;;;66.32;28.70;;;;;;;-0.75;100.00;100052.69;5071525;28;20078;-81
2023/01/20 03:36:45;;;;;;;69.78;27.90;;;;;;;-0.72;100.00;100063.94;5063301;28;20067;-81
2023/01/20 03:39:12;;;;;;;67.47;28.70;;;;;;;-1.23;100.00;99976.78;5067669;28;20052;-81
2023/01/20 03:41:49;;;;;;;73.47;29.15;;;;;;;-0.75;100.00;100066.56;5057372;28;20053;-80
2023/01/20 03:44:23;;;;;;;67.20;28.52;;;;;;;-0.81;100.00;100070.97;5059856;28;20072;-81
2023/01/20 03:47:02;;;;;;;67.68;29.85;;;;;;;-0.82;100.00;100075.28;5074996;28;20047;-82
2023/01/20 03:49:34;;;;;;;66.95;28.17;;;;;;;-0.90;100.00;100056.28;5060410;28;20144;-82
2023/01/20 03:52:12;;;;;;;69.35;28.58;;;;;;;-0.81;100.00;100071.81;5065123;28;20042;-80
2023/01/20 03:55:09;;;;;;;74.25;28.38;;;;;;;-0.87;100.00;100071.00;5072620;28;20052;-81
2023/01/20 03:57:50;;;;;;;72.65;27.85;;;;;;;-1.08;100.00;100020.00;5065913;28;20060;-80
2023/01/20 04:00:20;;;;;;;72.90;28.45;;;;;;;-0.87;100.00;100076.19;5060002;28;20041;-80
2023/01/20 04:02:47;;;;;;;72.10;29.05;;;;;;;-1.35;100.00;99995.03;5065713;28;20520;-81
2023/01/20 04:05:15;;;;;;;70.18;28.73;;;;;;;-0.89;100.00;100080.53;5066756;28;20053;-81
2023/01/20 04:07:45;;;;;;;75.25;28.98;;;;;;;-1.42;100.00;99999.38;5059195;28;20124;-81
2023/01/20 04:10:16;;;;;;;72.00;28.33;;;;;;;-0.91;100.00;100079.66;5062223;28;20033;-80
2023/01/20 04:12:42;;;;;;;80.03;29.40;;;;;;;-0.98;100.00;100078.00;5062004;28;20048;-81
2023/01/20 04:15:09;;;;;;;74.80;29.92;;;;;;;-1.07;100.00;100071.94;5070023;28;20055;-81
2023/01/20 04:17:36;;;;;;;72.78;28.50;;;;;;;-0.85;100.00;100106.50;5061443;28;20498;-80
2023/01/20 04:20:07;;;;;;;73.80;29.50;;;;;;;-1.35;100.00;100015.81;5055790;28;20072;-82
2023/01/20 04:22:41;;;;;;;69.15;28.30;;;;;;;-1.10;100.00;100051.19;5065255;28;20052;-81
2023/01/20 04:25:22;;;;;;;67.65;27.17;;;;;;;-1.45;100.00;99968.25;5055738;28;20044;-81
2023/01/20 04:27:49;;;;;;;73.15;28.52;;;;;;;-1.63;100.00;99952.78;5062933;28;20052;-80
2023/01/20 04:30:16;;;;;;;66.65;27.90;;;;;;;-0.79;100.00;100105.63;5068706;28;20516;-82
2023/01/20 04:32:43;;;;;;;70.95;28.38;;;;;;;-1.01;100.00;100089.25;5070263;28;20078;-81
2023/01/20 04:35:14;;;;;;;70.35;29.10;;;;;;;-1.62;100.00;99987.38;5065577;28;20058;-80
2023/01/20 04:37:41;;;;;;;72.45;29.33;;;;;;;-1.10;100.00;100073.69;5064637;28;20094;-81
2023/01/20 04:40:08;;;;;;;61.58;27.27;;;;;;;-1.20;100.00;100046.03;5055382;28;20045;-81
2023/01/20 04:42:36;;;;;;;57.92;26.98;;;;;;;-1.13;100.00;100038.22;5053571;28;20056;-82
2023/01/20 04:45:03;;;;;;;71.57;28.05;;;;;;;-0.87;100.00;100073.59;5056136;28;20481;-81
2023/01/20 04:47:32;;;;;;;72.65;29.00;;;;;;;-0.84;100.00;100095.22;5061346;28;20163;-80
2023/01/20 04:49:59;;;;;;;70.40;28.58;;;;;;;-0.92;100.00;100088.34;5061987;28;20049;-80
2023/01/20 04:52:25;;;;;;;69.10;28.30;;;;;;;-1.29;100.00;100025.31;5054217;28;20057;-81
2023/01/20 04:54:52;;;;;;;66.65;27.02;;;;;;;-0.80;100.00;100088.28;5062074;28;20067;-80
2023/01/20 04:57:18;;;;;;;67.15;29.55;;;;;;;-0.86;100.00;100083.97;5066455;28;20059;-80
2023/01/20 04:59:45;;;;;;;68.38;29.02;;;;;;;-0.72;100.00;100105.56;5062751;28;20052;-80
2023/01/20 05:02:11;;;;;;;73.50;29.20;;;;;;;-1.08;100.00;100058.97;5065580;28;20048;-82
2023/01/20 05:04:38;;;;;;;65.28;28.63;;;;;;;-0.87;100.00;100086.59;5065790;28;20104;-81
2023/01/20 05:07:04;;;;;;;69.65;28.48;;;;;;;-0.84;100.00;100102.16;5074489;28;20062;-80
2023/01/20 05:09:31;;;;;;;63.92;28.52;;;;;;;-0.64;100.00;100135.88;5065341;28;20079;-82
2023/01/20 05:11:58;;;;;;;68.35;28.77;;;;;;;-0.65;100.00;100140.19;5059984;28;20132;-82
2023/01/20 05:14:24;;;;;;;70.50;28.67;;;;;;;-0.74;100.00;100125.50;5061487;28;20052;-81
2023/01/20 05:16:51;;;;;;;72.07;27.20;;;;;;;-1.43;100.00;100002.03;5055123;28;20072;-80
2023/01/20 05:19:18;;;;;;;65.25;27.35;;;;;;;-1.19;100.00;100061.63;5064225;28;20045;-81
2023/01/20 05:21:44;;;;;;;68.03;28.38;;;;;;;-0.78;100.00;100136.78;5064045;28;20053;-81
2023/01/20 05:24:11;;;;;;;61.47;26.63;;;;;;;-0.77;100.00;100140.25;5074971;28;20049;-80
2023/01/20 05:26:38;;;;;;;55.47;25.98;;;;;;;-0.81;100.00;100148.94;5070383;28;20440;-80
2023/01/20 05:29:04;;;;;;;71.30;29.63;;;;;;;-1.07;100.00;100094.47;5068542;28;20143;-79
2023/01/20 05:31:31;;;;;;;68.95;27.92;;;;;;;-1.05;100.00;100100.53;5059267;28;20051;-83
2023/01/20 05:33:58;;;;;;;67.93;27.70;;;;;;;-0.76;100.00;100154.97;5062385;28;20056;-81
2023/01/20 05:36:24;;;;;;;66.20;29.27;;;;;;;-0.75;100.00;100152.38;5053016;28;20748;-80
2023/01/20 05:38:50;;;;;;;69.30;28.13;;;;;;;-1.05;100.00;100097.94;5060179;28;20058;-81
2023/01/20 05:41:17;;;;;;;67.75;27.92;;;;;;;-1.88;100.00;99958.91;5059967;28;20144;-82
2023/01/20 05:43:43;;;;;;;71.78;28.85;;;;;;;-0.89;100.00;100135.09;5059794;28;20072;-80
2023/01/20 05:46:10;;;;;;;65.50;27.52;;;;;;;-0.76;100.00;100160.16;5064082;28;20044;-82
2023/01/20 05:48:37;;;;;;;63.08;28.02;;;;;;;-0.74;100.00;100172.28;5060384;28;20163;-80
2023/01/20 05:51:03;;;;;;;67.50;28.17;;;;;;;-0.85;100.00;100136.84;5054748;28;20131;-81
2023/01/20 05:53:30;;;;;;;69.85;28.80;;;;;;;-1.55;100.00;100015.03;5057364;28;20053;-81
2023/01/20 05:56:01;;;;;;;69.35;28.90;;;;;;;-0.99;100.00;100116.09;5057423;28;20059;-80
2023/01/20 05:58:29;;;;;;;69.45;29.75;;;;;;;-0.90;100.00;100122.97;5065933;28;20055;-80
2023/01/20 06:01:06;;;;;;;71.65;29.50;;;;;;;-0.74;100.00;100150.63;5057026;28;20544;-82
2023/01/20 06:03:34;;;;;;;77.93;30.40;;;;;;;-0.85;100.00;100129.03;5056965;28;20053;-81
2023/01/20 06:06:02;;;;;;;75.50;29.75;;;;;;;-0.77;100.00;100159.31;5060800;28;20057;-80
2023/01/20 06:08:29;;;;;;;73.07;29.58;;;;;;;-1.17;100.00;100072.00;5064671;28;20139;-82
2023/01/20 06:10:55;;;;;;;67.38;28.05;;;;;;;-0.48;100.00;100200.78;5067761;28;20054;-81
2023/01/20 06:13:22;;;;;;;72.82;29.42;;;;;;;-0.48;100.00;100169.56;5052976;28;20053;-81
2023/01/20 06:15:52;;;;;;;75.80;30.88;;;;;;;-0.41;100.00;100191.19;5058932;28;20056;-81
2023/01/20 06:18:20;;;;;;;81.95;30.92;;;;;;;-0.45;100.00;100200.75;5056479;28;20049;-81
2023/01/20 06:20:47;;;;;;;79.45;30.40;;;;;;;-1.19;100.00;100086.75;5051033;28;20044;-80
2023/01/20 06:23:13;;;;;;;76.05;30.33;;;;;;;-0.54;100.00;100211.22;5058723;28;20048;-82
2023/01/20 06:25:41;;;;;;;76.38;30.25;;;;;;;-0.94;100.00;100157.66;5059282;28;20076;-81
2023/01/20 06:28:08;;;;;;;73.13;29.65;;;;;;;-1.71;100.00;100042.78;5054458;28;20131;-80
2023/01/20 06:30:34;;;;;;;72.03;29.45;;;;;;;-1.28;100.00;100121.44;5052380;28;20063;-81
2023/01/20 06:33:01;;;;;;;77.38;29.25;;;;;;;-0.82;100.00;100199.22;5062192;28;20052;-81
2023/01/20 06:35:27;;;;;;;71.90;28.88;;;;;;;-1.14;100.00;100161.22;5063714;28;20139;-81
2023/01/20 06:37:57;;;;;;;70.30;28.60;;;;;;;-0.94;100.00;100188.84;5055054;28;20055;-80
2023/01/20 06:40:23;;;;;;;65.07;26.80;;;;;;;-0.95;100.00;100182.81;5059638;28;20095;-80
2023/01/20 06:42:50;;;;;;;71.68;29.50;;;;;;;-0.77;100.00;100192.22;5050902;28;20063;-81
2023/01/20 06:45:16;;;;;;;64.45;27.27;;;;;;;-0.49;100.00;100245.88;5057979;28;20048;-81
2023/01/20 06:47:47;;;;;;;64.68;28.38;;;;;;;-0.79;100.00;100204.41;5071219;28;20044;-81
2023/01/20 06:50:15;;;;;;;67.43;27.73;;;;;;;-0.78;100.00;100196.56;5061542;28;20080;-81
2023/01/20 06:52:41;;;;;;;64.95;28.27;;;;;;;-0.94;100.00;100183.63;5065174;28;20048;-80
2023/01/20 06:55:08;;;;;;;66.43;28.13;;;;;;;-1.38;100.00;100109.31;5062920;28;20049;-81
2023/01/20 06:57:35;;;;;;;64.68;27.48;;;;;;;-1.66;100.00;100061.81;5065605;28;20047;-80
2023/01/20 07:00:03;;;;;;;66.97;28.15;;;;;;;-0.65;100.00;100226.00;5061016;28;20055;-81
2023/01/20 07:02:29;;;;;;;66.35;28.08;;;;;;;-1.14;100.00;100155.16;5068741;28;20052;-81
2023/01/20 07:04:56;;;;;;;64.93;28.23;;;;;;;-0.97;100.00;100189.75;5062973;28;20080;-81
2023/01/20 07:07:22;;;;;;;75.32;31.45;;;;;;;-0.86;100.00;100208.75;5060237;28;20056;-80
2023/01/20 07:09:53;;;;;;;64.95;27.60;;;;;;;-0.47;100.00;100264.91;5065996;28;20063;-80
2023/01/20 07:12:19;;;;;;;;;;;;;;;-0.42;100.00;100263.16;5074993;28;20054;-82
2023/01/20 07:14:46;;;;;;;66.68;27.80;;;;;;;-0.72;100.00;100196.56;5063288;28;19924;-82
2023/01/20 07:17:12;;;;;;;68.13;27.98;;;;;;;-0.33;100.00;100253.59;5063814;28;20049;-80
2023/01/20 07:19:39;;;;;;;70.30;29.15;;;;;;;-0.68;100.00;100206.94;5058161;28;20367;-81
2023/01/20 07:22:05;;;;;;;66.80;27.80;;;;;;;-0.70;100.00;100212.16;5063810;28;20056;-81
2023/01/20 07:24:32;;;;;;;71.45;29.65;;;;;;;-0.51;100.00;100249.34;5063232;28;20768;-80
2023/01/20 07:26:58;;;;;;;69.95;27.98;;;;;;;-0.60;100.00;100237.22;5063592;28;20056;-82
2023/01/20 07:29:25;;;;;;;68.70;28.50;;;;;;;-0.33;100.00;100283.09;5066318;28;20052;-83
2023/01/20 07:31:52;;;;;;;68.60;27.75;;;;;;;-0.40;100.00;100284.84;5065610;28;20047;-86
2023/01/20 07:34:19;;;;;;;68.78;28.52;;;;;;;-0.95;100.00;100181.94;5065691;28;20455;-81
2023/01/20 07:36:45;;;;;;;74.30;30.13;;;;;;;-0.54;100.00;100265.81;5058388;28;20055;-80
2023/01/20 07:39:13;;;;;;;74.30;29.80;;;;;;;-0.93;100.00;100196.63;5065792;28;20064;-81
2023/01/20 07:41:40;;;;;;;75.35;30.15;;;;;;;-0.54;100.00;100272.75;5065194;28;20133;-81
2023/01/20 07:44:06;;;;;;;67.53;29.65;;;;;;;-0.70;100.00;100261.56;5065625;28;20496;-81
2023/01/20 07:46:33;;;;;;;71.28;29.88;;;;;;;-0.50;100.00;100296.16;5066366;28;20059;-82
2023/01/20 07:48:59;;;;;;;79.72;29.38;;;;;;;-0.53;100.00;100301.38;5060703;28;20122;-81
2023/01/20 07:51:26;;;;;;;68.57;29.17;;;;;;;-0.92;100.00;100239.09;5061942;28;20207;-82
2023/01/20 07:53:53;;;;;;;70.72;28.30;;;;;;;-1.96;100.00;100072.28;5054544;28;20057;-82
2023/01/20 07:56:22;;;;;;;77.40;29.52;;;;;;;-0.70;100.00;100297.97;5065190;28;20049;-80
2023/01/20 07:58:49;;;;;;;73.40;29.95;;;;;;;-2.02;100.00;100060.16;5055232;28;20053;-82
2023/01/20 08:01:22;;;;;;;70.57;29.52;;;;;;;-0.63;100.00;100284.06;5056473;28;20767;-82
2023/01/20 08:03:50;;;;;;;76.93;31.08;;;;;;;-0.36;100.00;100314.31;5059726;28;20106;-81
2023/01/20 08:06:20;;;;;;;76.10;29.65;;;;;;;-1.46;100.00;100150.91;5063217;28;20544;-83
2023/01/20 08:08:47;;;;;;;82.80;30.63;;;;;;;-1.15;100.00;100190.66;5061893;28;20067;-82
2023/01/20 08:11:15;;;;;;;75.43;30.77;;;;;;;-0.84;100.00;100245.13;5062963;28;20438;-81
2023/01/20 08:13:43;;;;;;;73.72;30.17;;;;;;;-0.29;100.00;100328.16;5066072;28;20104;-81
2023/01/20 08:16:12;;;;;;;69.07;29.83;;;;;;;-0.26;100.00;100322.94;5053177;28;20060;-82
2023/01/20 08:18:39;;;;;;;73.32;30.48;;;;;;;-0.72;100.00;100239.91;5053688;28;20053;-80
2023/01/20 08:21:07;;;;;;;65.88;27.58;;;;;;;-0.19;100.00;100322.06;5053225;28;20057;-82
2023/01/20 08:23:34;;;;;;;68.38;28.52;;;;;;;-0.16;100.00;100333.28;5062488;28;20056;-81
2023/01/20 08:26:04;;;;;;;72.70;30.30;;;;;;;-0.12;100.00;100335.00;5070862;28;20108;-81
2023/01/20 08:28:32;;;;;;;66.13;29.35;;;;;;;-0.18;100.00;100324.66;5067855;28;20080;-81
2023/01/20 08:31:12;;;;;;;67.13;28.98;;;;;;;-0.16;100.00;100312.47;5061643;28;20055;-82
2023/01/20 08:33:41;;;;;;;68.60;27.90;;;;;;;-0.01;100.00;100342.78;5056776;28;20080;-81
2023/01/20 08:36:20;;;;;;;73.00;30.85;;;;;;;-0.36;100.00;100288.31;5071532;28;20419;-82
2023/01/20 08:38:47;;;;;;;64.20;28.98;;;;;;;-0.35;100.00;100297.84;5068417;28;20057;-80
2023/01/20 08:41:20;;;;;;;71.07;29.58;;;;;;;0.06;100.00;100348.81;5053350;28;20182;-81
2023/01/20 08:43:47;;;;;;;64.70;29.98;;;;;;;-0.31;100.00;100286.53;5062636;28;20143;-81
2023/01/20 08:46:16;;;;;;;70.40;32.00;;;;;;;-0.17;100.00;100309.91;5072385;28;20053;-83
2023/01/20 08:48:43;;;;;;;78.82;33.42;;;;;;;-0.77;100.00;100233.84;5057410;28;20063;-81
2023/01/20 08:51:14;;;;;;;82.05;34.10;;;;;;;-0.62;100.00;100261.50;5058066;28;20083;-82
2023/01/20 08:53:41;;;;;;;83.15;35.85;;;;;;;-0.65;100.00;100258.94;5062555;28;20052;-81
2023/01/20 08:56:09;;;;;;;81.35;34.25;;;;;;;-0.30;100.00;100340.28;5070902;28;20052;-81
2023/01/20 08:58:36;;;;;;;91.03;36.90;;;;;;;-0.12;100.00;100360.19;5064914;28;20052;-80
2023/01/20 09:01:10;;;;;;;86.45;36.55;;;;;;;-0.20;100.00;100339.41;5066200;28;20106;-81
2023/01/20 09:03:38;;;;;;;91.35;37.20;;;;;;;-0.72;100.00;100253.75;5064852;28;20049;-82
2023/01/20 09:06:06;;;;;;;84.03;36.30;;;;;;;-0.05;100.00;100372.31;5081032;28;20048;-81
2023/01/20 09:08:33;;;;;;;87.55;35.63;;;;;;;-0.04;100.00;100363.63;5076456;28;20067;-81
2023/01/20 09:11:12;;;;;;;86.18;36.20;;;;;;;-0.43;100.00;100292.66;5071471;28;20045;-83
2023/01/20 09:13:39;;;;;;;91.22;35.42;;;;;;;-0.01;100.00;100374.03;5073528;28;20412;-81
2023/01/20 09:16:06;;;;;;;88.03;36.08;;;;;;;-0.02;100.00;100374.91;5056533;28;20055;-81
2023/01/20 09:18:34;;;;;;;88.75;37.67;;;;;;;0.00;100.00;100388.78;5073052;28;20507;-82
2023/01/20 09:21:05;;;;;;;85.68;36.45;;;;;;;-0.79;100.00;100275.44;5072778;28;20079;-80
2023/01/20 09:23:37;;;;;;;88.38;35.28;;;;;;;-1.06;100.00;100240.00;5058701;28;20102;-82
2023/01/20 09:26:05;;;;;;;89.53;36.50;;;;;;;-0.24;100.00;100391.47;5056703;28;20059;-81
2023/01/20 09:28:33;;;;;;;94.53;38.35;;;;;;;-0.56;100.00;100344.72;5061433;28;20501;-81
2023/01/20 09:31:03;;;;;;;88.18;36.90;;;;;;;-1.68;100.00;100158.72;5063097;28;20056;-81
2023/01/20 09:33:30;;;;;;;86.33;37.37;;;;;;;-0.27;100.00;100418.34;5063913;28;20081;-81
2023/01/20 09:35:58;;;;;;;85.15;35.20;;;;;;;-0.29;100.00;100414.00;5055208;28;20485;-81
2023/01/20 09:44:14;;;;;;;87.55;35.67;;;;;;;-0.16;100.00;100415.75;5051518;28;20063;-82
2023/01/20 09:47:18;;;;;;;80.20;34.40;;;;;;;-0.33;100.00;100378.50;5061327;28;20075;-82
2023/01/20 09:55:31;;;;;;;68.15;33.20;;;;;;;0.32;100.00;100422.44;5053729;28;20567;-81
2023/01/20 09:58:23;;;;;;;77.85;35.47;;;;;;;0.42;100.00;100416.34;5068826;28;20102;-82
2023/01/20 10:01:04;;;;;;;81.10;35.95;;;;;;;0.49;100.00;100420.63;5061512;28;20147;-82
2023/01/20 10:03:40;;;;;;;72.45;33.35;;;;;;;0.63;100.00;100412.75;5063624;28;20049;-82
2023/01/20 10:06:25;;;;;;;65.35;31.35;;;;;;;0.64;100.00;100391.88;5068550;28;20112;-81
2023/01/20 10:09:25;;;;;;;63.10;29.27;;;;;;;0.66;100.00;100352.75;5061453;28;20544;-83
2023/01/20 10:12:01;;;;;;;51.38;26.35;;;;;;;0.77;100.00;100356.19;5035959;28;20055;-84
2023/01/20 10:14:37;;;;;;;54.70;28.35;;;;;;;1.02;100.00;100378.56;5068220;28;20429;-83
2023/01/20 10:17:15;;;;;;;48.97;26.80;;;;;;;1.18;100.00;100415.78;5055252;28;20072;-82
2023/01/20 10:19:55;;;;;;;51.63;26.58;;;;;;;1.21;100.00;100414.91;5061331;28;20048;-84
2023/01/20 10:22:44;;;;;;;60.95;28.80;;;;;;;0.96;100.00;100369.91;5065123;28;20049;-82
2023/01/20 10:25:20;;;;;;;57.75;28.40;;;;;;;1.07;100.00;100369.81;5065465;28;20166;-83
2023/01/20 10:27:54;;;;;;;54.53;28.60;;;;;;;1.05;100.00;100357.66;5057669;28;20060;-82
2023/01/20 10:30:29;;;;;;;55.35;27.92;;;;;;;1.33;100.00;100409.56;5053555;28;20136;-81
2023/01/20 10:33:02;;;;;;;50.75;27.95;;;;;;;1.52;100.00;100420.69;5072832;28;20029;-82
2023/01/20 10:35:35;;;;;;;52.38;28.00;;;;;;;1.50;100.00;100422.47;5073225;28;20045;-84
2023/01/20 10:38:06;;;;;;;50.85;27.67;;;;;;;1.27;100.00;100381.78;5079408;28;20072;-82
2023/01/20 10:40:50;;;;;;;53.58;27.15;;;;;;;1.49;100.00;100426.81;5070962;28;20049;-83
2023/01/20 10:43:18;;;;;;;55.13;26.67;;;;;;;1.00;100.00;100353.34;5072340;28;20098;-83
2023/01/20 10:46:03;;;;;;;52.75;27.63;;;;;;;1.33;100.00;100422.63;5063435;28;20060;-84
2023/01/20 10:48:37;;;;;;;59.28;30.15;;;;;;;1.40;100.00;100422.56;5065712;28;20056;-82
2023/01/20 10:51:29;;;;;;;55.13;29.25;;;;;;;1.30;100.00;100392.19;5058558;28;20048;-83
2023/01/20 10:54:31;;;;;;;52.60;28.13;;;;;;;1.26;100.00;100372.22;5062956;28;20048;-82
2023/01/20 10:57:00;;;;;;;52.30;28.55;;;;;;;1.50;100.00;100404.19;5073892;28;20059;-82
2023/01/20 10:59:57;;;;;;;55.47;30.02;;;;;;;1.71;100.00;100419.66;5062244;28;20056;-83
2023/01/20 11:02:27;;;;;;;43.97;26.48;;;;;;;1.33;100.00;100333.91;5055097;28;20045;-83
2023/01/20 11:05:17;;;;;;;48.22;25.48;;;;;;;2.02;100.00;100407.97;5072408;28;20060;-82
2023/01/20 11:07:46;;;;;;;42.38;24.65;;;;;;;2.26;100.00;100421.59;5065800;28;20390;-82
2023/01/20 11:10:18;;;;;;;46.28;26.42;;;;;;;1.64;100.00;100324.00;5071319;28;20052;-82
2023/01/20 11:12:49;;;;;;;48.95;27.00;;;;;;;2.04;100.00;100382.69;5062192;28;20071;-82
2023/01/20 11:15:18;;;;;;;44.55;26.30;;;;;;;2.21;100.00;100421.66;5055636;28;20059;-82
2023/01/20 11:17:45;;;;;;;51.72;27.60;;;;;;;2.18;100.00;100421.72;5055289;28;20067;-83
2023/01/20 11:20:22;;;;;;;47.45;26.27;;;;;;;2.03;100.00;100401.88;5060196;28;20052;-82
2023/01/20 11:22:49;;;;;;;48.30;26.70;;;;;;;2.24;100.00;100420.75;5068049;28;20053;-83
2023/01/20 11:25:25;;;;;;;46.85;27.50;;;;;;;2.16;100.00;100410.41;5066647;28;20477;-83
2023/01/20 11:27:52;;;;;;;41.35;25.90;;;;;;;1.57;100.00;100336.28;5069168;28;20251;-81
2023/01/20 11:30:25;;;;;;;43.10;25.25;;;;;;;1.59;100.00;100362.31;5054511;28;20076;-82
2023/01/20 11:33:23;;;;;;;44.95;26.13;;;;;;;1.66;100.00;100383.13;5055299;28;20057;-84